ROMMA est une association bénévole à but non lucratif. Votre soutien est indispensable : ADHERER à ROMMA ou FAIRE un DON

Crest - (26, Drôme)

Vallée de la Drôme (315 m)   Longitude: 5°2' E   Latitude: 44°44' N Station partenaire n°62
 

Détail journalier du     <<     >>

Température Precipitation Humidité Pression Vent Dir Rafale Dir. rafale Ensol.
Heure (°C) (mm) (%) (hPa) (km/h) (km/h) (min)
01:00 6.708410164ESE15ESE0
02:00 6.308510173SE13ESE0
03:00 6.308510172SSO13E0
04:00 5.608610161S8SSE0
05:00 5.108910163SSO8SE0
06:00 5.309110151---8S0
07:00 4.909110151SSE5SSE0
08:00 4.809010151SSE8SE0
09:00 5.908710151S6SE0
10:00 7.30.38310152SE8SSE19
11:00 7.208810151SE6SE11
12:00 7.808510152ESE6SE11
13:00 8.807310153SE11SE0
14:00 10.206610144SE15SSE42
15:00 9.906210147NE23SSO26
16:00 8.707010156NE21NE21
17:00 8.307010157NE21NE22
18:00 7.307710164NNO18NE0
19:00 6.60.57910179ENE35SO0
20:00 6.3077101917NE37SSO0
21:00 5.9079101916NE35NNE0
22:00 5.3082102021NE48NE0
23:00 4.91.382102122NE60NE0
minuit 4.70.374102228NE53NNE0

Graphique du 09-12-2019

 

Serveur OMMA